sensor_id;sensor_type;location;lat;lon;timestamp;P1;durP1;ratioP1;P2;durP2;ratioP2
9597;SDS011;4837;50.890;4.724;2023-08-17T00:00:06;3.72;;;2.38;;
9597;SDS011;4837;50.890;4.724;2023-08-17T00:02:38;3.42;;;2.50;;
9597;SDS011;4837;50.890;4.724;2023-08-17T00:05:04;3.65;;;2.47;;
9597;SDS011;4837;50.890;4.724;2023-08-17T00:07:35;3.08;;;2.50;;
9597;SDS011;4837;50.890;4.724;2023-08-17T00:10:02;3.58;;;2.30;;
9597;SDS011;4837;50.890;4.724;2023-08-17T00:12:28;2.85;;;2.47;;
9597;SDS011;4837;50.890;4.724;2023-08-17T00:14:55;4.55;;;2.53;;
9597;SDS011;4837;50.890;4.724;2023-08-17T00:17:21;2.92;;;2.50;;
9597;SDS011;4837;50.890;4.724;2023-08-17T00:19:48;4.18;;;2.42;;
9597;SDS011;4837;50.890;4.724;2023-08-17T00:22:15;2.83;;;2.42;;
9597;SDS011;4837;50.890;4.724;2023-08-17T00:24:41;4.05;;;2.50;;
9597;SDS011;4837;50.890;4.724;2023-08-17T00:27:10;4.05;;;2.20;;
9597;SDS011;4837;50.890;4.724;2023-08-17T00:29:36;3.50;;;2.40;;
9597;SDS011;4837;50.890;4.724;2023-08-17T00:32:02;6.38;;;2.55;;
9597;SDS011;4837;50.890;4.724;2023-08-17T00:34:29;3.30;;;2.33;;
9597;SDS011;4837;50.890;4.724;2023-08-17T00:36:55;4.05;;;2.20;;
9597;SDS011;4837;50.890;4.724;2023-08-17T00:39:21;3.22;;;2.47;;
9597;SDS011;4837;50.890;4.724;2023-08-17T00:41:47;2.85;;;2.35;;
9597;SDS011;4837;50.890;4.724;2023-08-17T00:44:13;3.55;;;2.35;;
9597;SDS011;4837;50.890;4.724;2023-08-17T00:46:39;4.35;;;2.58;;
9597;SDS011;4837;50.890;4.724;2023-08-17T00:49:08;4.20;;;2.30;;
9597;SDS011;4837;50.890;4.724;2023-08-17T00:51:36;5.55;;;2.45;;
9597;SDS011;4837;50.890;4.724;2023-08-17T00:54:02;2.45;;;2.25;;
9597;SDS011;4837;50.890;4.724;2023-08-17T00:56:28;6.28;;;2.70;;
9597;SDS011;4837;50.890;4.724;2023-08-17T00:58:55;3.15;;;2.53;;
9597;SDS011;4837;50.890;4.724;2023-08-17T01:01:21;3.25;;;2.47;;
9597;SDS011;4837;50.890;4.724;2023-08-17T01:03:48;3.33;;;2.83;;
9597;SDS011;4837;50.890;4.724;2023-08-17T01:06:14;2.88;;;2.60;;
9597;SDS011;4837;50.890;4.724;2023-08-17T01:08:40;3.55;;;2.35;;
9597;SDS011;4837;50.890;4.724;2023-08-17T01:14:20;2.72;;;2.33;;
9597;SDS011;4837;50.890;4.724;2023-08-17T01:16:38;3.83;;;2.45;;
9597;SDS011;4837;50.890;4.724;2023-08-17T01:19:07;4.18;;;2.40;;
9597;SDS011;4837;50.890;4.724;2023-08-17T01:21:44;4.40;;;2.50;;
9597;SDS011;4837;50.890;4.724;2023-08-17T01:24:14;5.00;;;2.70;;
9597;SDS011;4837;50.890;4.724;2023-08-17T01:26:40;3.97;;;2.70;;
9597;SDS011;4837;50.890;4.724;2023-08-17T01:29:06;4.18;;;2.42;;
9597;SDS011;4837;50.890;4.724;2023-08-17T01:32:16;3.22;;;2.65;;
9597;SDS011;4837;50.890;4.724;2023-08-17T01:34:22;4.07;;;2.80;;
9597;SDS011;4837;50.890;4.724;2023-08-17T01:36:57;4.55;;;2.63;;
9597;SDS011;4837;50.890;4.724;2023-08-17T01:39:26;3.63;;;2.65;;
9597;SDS011;4837;50.890;4.724;2023-08-17T01:41:52;2.92;;;2.33;;
9597;SDS011;4837;50.890;4.724;2023-08-17T01:44:21;4.13;;;2.63;;
9597;SDS011;4837;50.890;4.724;2023-08-17T01:46:48;2.85;;;2.55;;
9597;SDS011;4837;50.890;4.724;2023-08-17T01:49:14;4.78;;;2.45;;
9597;SDS011;4837;50.890;4.724;2023-08-17T01:51:40;5.28;;;2.63;;
9597;SDS011;4837;50.890;4.724;2023-08-17T01:54:06;4.00;;;2.70;;
9597;SDS011;4837;50.890;4.724;2023-08-17T01:56:32;3.42;;;2.65;;
9597;SDS011;4837;50.890;4.724;2023-08-17T01:58:58;4.32;;;2.83;;
9597;SDS011;4837;50.890;4.724;2023-08-17T02:01:24;4.72;;;2.70;;
9597;SDS011;4837;50.890;4.724;2023-08-17T02:03:51;3.70;;;2.30;;
9597;SDS011;4837;50.890;4.724;2023-08-17T02:06:17;4.45;;;3.05;;
9597;SDS011;4837;50.890;4.724;2023-08-17T02:08:44;3.15;;;2.72;;
9597;SDS011;4837;50.890;4.724;2023-08-17T02:11:10;3.42;;;2.47;;
9597;SDS011;4837;50.890;4.724;2023-08-17T02:13:36;4.15;;;3.03;;
9597;SDS011;4837;50.890;4.724;2023-08-17T02:16:03;3.17;;;2.50;;
9597;SDS011;4837;50.890;4.724;2023-08-17T02:18:29;3.72;;;2.85;;
9597;SDS011;4837;50.890;4.724;2023-08-17T02:20:57;2.88;;;2.58;;
9597;SDS011;4837;50.890;4.724;2023-08-17T02:23:23;3.40;;;2.63;;
9597;SDS011;4837;50.890;4.724;2023-08-17T02:25:50;5.43;;;3.10;;
9597;SDS011;4837;50.890;4.724;2023-08-17T02:28:17;3.33;;;2.70;;
9597;SDS011;4837;50.890;4.724;2023-08-17T02:30:43;5.85;;;3.10;;
9597;SDS011;4837;50.890;4.724;2023-08-17T02:33:09;4.07;;;2.70;;
9597;SDS011;4837;50.890;4.724;2023-08-17T02:35:35;3.33;;;3.00;;
9597;SDS011;4837;50.890;4.724;2023-08-17T02:38:01;3.28;;;2.55;;
9597;SDS011;4837;50.890;4.724;2023-08-17T02:40:27;4.30;;;2.70;;
9597;SDS011;4837;50.890;4.724;2023-08-17T02:42:53;4.18;;;2.85;;
9597;SDS011;4837;50.890;4.724;2023-08-17T02:45:19;6.55;;;2.97;;
9597;SDS011;4837;50.890;4.724;2023-08-17T02:47:46;3.63;;;2.97;;
9597;SDS011;4837;50.890;4.724;2023-08-17T02:50:12;3.53;;;2.92;;
9597;SDS011;4837;50.890;4.724;2023-08-17T02:52:38;4.75;;;3.00;;
9597;SDS011;4837;50.890;4.724;2023-08-17T02:55:04;5.28;;;3.03;;
9597;SDS011;4837;50.890;4.724;2023-08-17T02:57:31;4.15;;;2.90;;
9597;SDS011;4837;50.890;4.724;2023-08-17T02:59:57;6.38;;;2.90;;
9597;SDS011;4837;50.890;4.724;2023-08-17T03:02:23;4.35;;;2.97;;
9597;SDS011;4837;50.890;4.724;2023-08-17T03:04:49;5.75;;;2.90;;
9597;SDS011;4837;50.890;4.724;2023-08-17T03:07:15;4.03;;;2.92;;
9597;SDS011;4837;50.890;4.724;2023-08-17T03:09:41;3.72;;;2.90;;
9597;SDS011;4837;50.890;4.724;2023-08-17T03:12:07;7.47;;;3.30;;
9597;SDS011;4837;50.890;4.724;2023-08-17T03:14:34;3.17;;;2.80;;
9597;SDS011;4837;50.890;4.724;2023-08-17T03:17:00;5.07;;;2.85;;
9597;SDS011;4837;50.890;4.724;2023-08-17T03:19:26;4.00;;;3.15;;
9597;SDS011;4837;50.890;4.724;2023-08-17T03:21:53;3.42;;;2.92;;
9597;SDS011;4837;50.890;4.724;2023-08-17T03:24:19;4.80;;;3.00;;
9597;SDS011;4837;50.890;4.724;2023-08-17T03:26:45;3.47;;;2.72;;
9597;SDS011;4837;50.890;4.724;2023-08-17T03:29:11;4.15;;;2.90;;
9597;SDS011;4837;50.890;4.724;2023-08-17T03:31:37;3.35;;;2.78;;
9597;SDS011;4837;50.890;4.724;2023-08-17T03:34:03;4.97;;;3.10;;
9597;SDS011;4837;50.890;4.724;2023-08-17T03:36:30;2.85;;;2.58;;
9597;SDS011;4837;50.890;4.724;2023-08-17T03:38:56;4.15;;;3.28;;
9597;SDS011;4837;50.890;4.724;2023-08-17T03:41:22;3.30;;;2.67;;
9597;SDS011;4837;50.890;4.724;2023-08-17T03:43:48;5.75;;;3.03;;
9597;SDS011;4837;50.890;4.724;2023-08-17T03:46:14;5.07;;;2.90;;
9597;SDS011;4837;50.890;4.724;2023-08-17T03:48:40;5.32;;;2.90;;
9597;SDS011;4837;50.890;4.724;2023-08-17T03:51:07;4.70;;;3.05;;
9597;SDS011;4837;50.890;4.724;2023-08-17T03:53:33;4.95;;;3.38;;
9597;SDS011;4837;50.890;4.724;2023-08-17T03:55:59;6.15;;;3.00;;
9597;SDS011;4837;50.890;4.724;2023-08-17T03:58:25;5.00;;;3.00;;
9597;SDS011;4837;50.890;4.724;2023-08-17T04:00:52;4.28;;;2.78;;
9597;SDS011;4837;50.890;4.724;2023-08-17T04:03:18;7.40;;;3.20;;
9597;SDS011;4837;50.890;4.724;2023-08-17T04:05:45;4.50;;;3.30;;
9597;SDS011;4837;50.890;4.724;2023-08-17T04:08:11;4.90;;;3.13;;
9597;SDS011;4837;50.890;4.724;2023-08-17T04:10:37;3.55;;;2.75;;
9597;SDS011;4837;50.890;4.724;2023-08-17T04:13:03;3.22;;;2.88;;
9597;SDS011;4837;50.890;4.724;2023-08-17T04:15:29;4.03;;;3.10;;
9597;SDS011;4837;50.890;4.724;2023-08-17T04:17:56;3.50;;;2.63;;
9597;SDS011;4837;50.890;4.724;2023-08-17T04:20:22;4.28;;;3.33;;
9597;SDS011;4837;50.890;4.724;2023-08-17T04:22:50;4.50;;;2.83;;
9597;SDS011;4837;50.890;4.724;2023-08-17T04:25:16;4.68;;;3.15;;
9597;SDS011;4837;50.890;4.724;2023-08-17T04:27:42;4.60;;;3.20;;
9597;SDS011;4837;50.890;4.724;2023-08-17T04:30:09;3.92;;;3.30;;
9597;SDS011;4837;50.890;4.724;2023-08-17T04:32:35;4.95;;;3.35;;
9597;SDS011;4837;50.890;4.724;2023-08-17T04:35:01;5.43;;;3.03;;
9597;SDS011;4837;50.890;4.724;2023-08-17T04:37:27;5.07;;;3.20;;
9597;SDS011;4837;50.890;4.724;2023-08-17T04:39:53;5.32;;;2.95;;
9597;SDS011;4837;50.890;4.724;2023-08-17T04:42:19;5.75;;;3.25;;
9597;SDS011;4837;50.890;4.724;2023-08-17T04:44:46;4.28;;;3.13;;
9597;SDS011;4837;50.890;4.724;2023-08-17T04:47:12;3.60;;;2.90;;
9597;SDS011;4837;50.890;4.724;2023-08-17T04:49:38;5.93;;;3.42;;
9597;SDS011;4837;50.890;4.724;2023-08-17T04:52:04;6.15;;;3.15;;
9597;SDS011;4837;50.890;4.724;2023-08-17T04:54:30;6.47;;;3.38;;
9597;SDS011;4837;50.890;4.724;2023-08-17T04:56:56;5.93;;;3.60;;
9597;SDS011;4837;50.890;4.724;2023-08-17T04:59:22;4.40;;;2.97;;
9597;SDS011;4837;50.890;4.724;2023-08-17T05:01:48;6.38;;;3.50;;
9597;SDS011;4837;50.890;4.724;2023-08-17T05:04:14;5.53;;;3.05;;
9597;SDS011;4837;50.890;4.724;2023-08-17T05:06:41;3.65;;;3.22;;
9597;SDS011;4837;50.890;4.724;2023-08-17T05:09:08;4.75;;;3.60;;
9597;SDS011;4837;50.890;4.724;2023-08-17T05:11:34;4.35;;;3.08;;
9597;SDS011;4837;50.890;4.724;2023-08-17T05:14:00;4.65;;;3.15;;
9597;SDS011;4837;50.890;4.724;2023-08-17T05:16:26;4.38;;;2.78;;
9597;SDS011;4837;50.890;4.724;2023-08-17T05:18:52;7.03;;;3.30;;
9597;SDS011;4837;50.890;4.724;2023-08-17T05:21:19;4.70;;;3.40;;
9597;SDS011;4837;50.890;4.724;2023-08-17T05:23:45;5.05;;;3.20;;
9597;SDS011;4837;50.890;4.724;2023-08-17T05:26:11;7.47;;;3.35;;
9597;SDS011;4837;50.890;4.724;2023-08-17T05:28:37;5.28;;;2.78;;
9597;SDS011;4837;50.890;4.724;2023-08-17T05:31:04;6.18;;;3.22;;
9597;SDS011;4837;50.890;4.724;2023-08-17T05:33:31;5.43;;;3.05;;
9597;SDS011;4837;50.890;4.724;2023-08-17T05:35:57;4.05;;;2.95;;
9597;SDS011;4837;50.890;4.724;2023-08-17T05:38:23;4.97;;;3.40;;
9597;SDS011;4837;50.890;4.724;2023-08-17T05:40:56;3.97;;;3.05;;
9597;SDS011;4837;50.890;4.724;2023-08-17T05:43:22;4.50;;;2.90;;
9597;SDS011;4837;50.890;4.724;2023-08-17T05:45:48;3.92;;;3.00;;
9597;SDS011;4837;50.890;4.724;2023-08-17T05:48:15;4.18;;;3.08;;
9597;SDS011;4837;50.890;4.724;2023-08-17T05:50:41;5.80;;;2.80;;
9597;SDS011;4837;50.890;4.724;2023-08-17T05:53:07;4.80;;;3.05;;
9597;SDS011;4837;50.890;4.724;2023-08-17T05:55:34;4.22;;;3.15;;
9597;SDS011;4837;50.890;4.724;2023-08-17T05:58:00;5.38;;;3.25;;
9597;SDS011;4837;50.890;4.724;2023-08-17T06:00:26;4.50;;;3.25;;
9597;SDS011;4837;50.890;4.724;2023-08-17T06:02:52;4.80;;;2.75;;
9597;SDS011;4837;50.890;4.724;2023-08-17T06:05:22;8.13;;;3.30;;
9597;SDS011;4837;50.890;4.724;2023-08-17T06:07:51;4.53;;;3.10;;
9597;SDS011;4837;50.890;4.724;2023-08-17T06:10:17;5.28;;;3.15;;
9597;SDS011;4837;50.890;4.724;2023-08-17T06:12:44;5.72;;;3.30;;
9597;SDS011;4837;50.890;4.724;2023-08-17T06:15:10;6.47;;;3.53;;
9597;SDS011;4837;50.890;4.724;2023-08-17T06:17:36;7.30;;;3.70;;
9597;SDS011;4837;50.890;4.724;2023-08-17T06:20:02;5.22;;;3.55;;
9597;SDS011;4837;50.890;4.724;2023-08-17T06:22:28;6.35;;;3.20;;
9597;SDS011;4837;50.890;4.724;2023-08-17T06:24:54;4.80;;;2.95;;
9597;SDS011;4837;50.890;4.724;2023-08-17T06:27:20;6.88;;;3.63;;
9597;SDS011;4837;50.890;4.724;2023-08-17T06:29:46;4.28;;;2.97;;
9597;SDS011;4837;50.890;4.724;2023-08-17T06:32:13;4.35;;;2.60;;
9597;SDS011;4837;50.890;4.724;2023-08-17T06:34:39;7.05;;;3.30;;
9597;SDS011;4837;50.890;4.724;2023-08-17T06:37:05;5.80;;;3.13;;
9597;SDS011;4837;50.890;4.724;2023-08-17T06:39:31;5.80;;;3.33;;
9597;SDS011;4837;50.890;4.724;2023-08-17T06:41:57;5.63;;;3.42;;
9597;SDS011;4837;50.890;4.724;2023-08-17T06:44:23;7.85;;;3.88;;
9597;SDS011;4837;50.890;4.724;2023-08-17T06:46:50;7.20;;;3.75;;
9597;SDS011;4837;50.890;4.724;2023-08-17T06:49:16;8.25;;;3.95;;
9597;SDS011;4837;50.890;4.724;2023-08-17T06:51:42;8.75;;;4.38;;
9597;SDS011;4837;50.890;4.724;2023-08-17T06:54:08;8.13;;;4.40;;
9597;SDS011;4837;50.890;4.724;2023-08-17T06:56:34;10.40;;;4.80;;
9597;SDS011;4837;50.890;4.724;2023-08-17T06:59:00;8.05;;;4.68;;
9597;SDS011;4837;50.890;4.724;2023-08-17T07:01:28;9.45;;;5.00;;
9597;SDS011;4837;50.890;4.724;2023-08-17T07:03:54;7.68;;;4.88;;
9597;SDS011;4837;50.890;4.724;2023-08-17T07:06:21;7.32;;;4.97;;
9597;SDS011;4837;50.890;4.724;2023-08-17T07:08:47;7.40;;;4.65;;
9597;SDS011;4837;50.890;4.724;2023-08-17T07:11:13;5.40;;;4.82;;
9597;SDS011;4837;50.890;4.724;2023-08-17T07:13:39;7.55;;;4.07;;
9597;SDS011;4837;50.890;4.724;2023-08-17T07:16:05;5.13;;;4.35;;
9597;SDS011;4837;50.890;4.724;2023-08-17T07:18:31;6.28;;;4.32;;
9597;SDS011;4837;50.890;4.724;2023-08-17T07:20:57;8.63;;;4.80;;
9597;SDS011;4837;50.890;4.724;2023-08-17T07:23:23;9.05;;;5.13;;
9597;SDS011;4837;50.890;4.724;2023-08-17T07:25:49;8.20;;;5.25;;
9597;SDS011;4837;50.890;4.724;2023-08-17T07:28:16;9.63;;;5.07;;
9597;SDS011;4837;50.890;4.724;2023-08-17T07:30:42;6.15;;;4.53;;
9597;SDS011;4837;50.890;4.724;2023-08-17T07:33:08;6.60;;;4.22;;
9597;SDS011;4837;50.890;4.724;2023-08-17T07:35:34;7.13;;;4.57;;
9597;SDS011;4837;50.890;4.724;2023-08-17T07:38:00;6.45;;;4.35;;
9597;SDS011;4837;50.890;4.724;2023-08-17T07:40:26;6.88;;;4.45;;
9597;SDS011;4837;50.890;4.724;2023-08-17T07:42:52;6.63;;;4.35;;
9597;SDS011;4837;50.890;4.724;2023-08-17T07:45:18;7.10;;;4.22;;
9597;SDS011;4837;50.890;4.724;2023-08-17T07:47:45;8.13;;;4.43;;
9597;SDS011;4837;50.890;4.724;2023-08-17T07:50:11;6.63;;;4.45;;
9597;SDS011;4837;50.890;4.724;2023-08-17T07:52:37;4.43;;;4.03;;
9597;SDS011;4837;50.890;4.724;2023-08-17T07:55:03;7.15;;;4.22;;
9597;SDS011;4837;50.890;4.724;2023-08-17T07:57:30;6.32;;;3.80;;
9597;SDS011;4837;50.890;4.724;2023-08-17T07:59:56;4.97;;;4.47;;
9597;SDS011;4837;50.890;4.724;2023-08-17T08:02:22;5.95;;;4.13;;
9597;SDS011;4837;50.890;4.724;2023-08-17T08:04:48;6.13;;;3.90;;
9597;SDS011;4837;50.890;4.724;2023-08-17T08:07:14;8.20;;;4.22;;
9597;SDS011;4837;50.890;4.724;2023-08-17T08:09:40;6.90;;;4.97;;
9597;SDS011;4837;50.890;4.724;2023-08-17T08:12:07;7.10;;;4.80;;
9597;SDS011;4837;50.890;4.724;2023-08-17T08:14:33;6.43;;;4.40;;
9597;SDS011;4837;50.890;4.724;2023-08-17T08:16:59;8.98;;;5.10;;
9597;SDS011;4837;50.890;4.724;2023-08-17T08:19:25;7.97;;;5.00;;
9597;SDS011;4837;50.890;4.724;2023-08-17T08:21:51;8.02;;;5.50;;
9597;SDS011;4837;50.890;4.724;2023-08-17T08:24:18;6.40;;;4.65;;
9597;SDS011;4837;50.890;4.724;2023-08-17T08:26:44;7.85;;;4.53;;
9597;SDS011;4837;50.890;4.724;2023-08-17T08:29:10;10.10;;;5.00;;
9597;SDS011;4837;50.890;4.724;2023-08-17T08:31:36;17.75;;;6.80;;
9597;SDS011;4837;50.890;4.724;2023-08-17T08:34:02;9.75;;;5.57;;
9597;SDS011;4837;50.890;4.724;2023-08-17T08:36:28;6.03;;;4.82;;
9597;SDS011;4837;50.890;4.724;2023-08-17T08:38:55;8.63;;;5.60;;
9597;SDS011;4837;50.890;4.724;2023-08-17T08:41:21;8.52;;;6.65;;
9597;SDS011;4837;50.890;4.724;2023-08-17T08:43:47;9.30;;;7.07;;
9597;SDS011;4837;50.890;4.724;2023-08-17T08:46:14;9.93;;;7.00;;
9597;SDS011;4837;50.890;4.724;2023-08-17T08:48:42;9.38;;;6.97;;
9597;SDS011;4837;50.890;4.724;2023-08-17T08:51:08;9.63;;;6.85;;
9597;SDS011;4837;50.890;4.724;2023-08-17T08:53:37;12.35;;;7.60;;
9597;SDS011;4837;50.890;4.724;2023-08-17T08:56:04;10.10;;;6.72;;
9597;SDS011;4837;50.890;4.724;2023-08-17T08:58:33;10.77;;;7.25;;
9597;SDS011;4837;50.890;4.724;2023-08-17T09:01:00;9.18;;;7.35;;
9597;SDS011;4837;50.890;4.724;2023-08-17T09:03:26;10.15;;;7.20;;
9597;SDS011;4837;50.890;4.724;2023-08-17T09:05:53;10.90;;;7.30;;
9597;SDS011;4837;50.890;4.724;2023-08-17T09:08:24;11.43;;;7.57;;
9597;SDS011;4837;50.890;4.724;2023-08-17T09:10:51;9.57;;;7.97;;
9597;SDS011;4837;50.890;4.724;2023-08-17T09:13:17;9.82;;;7.78;;
9597;SDS011;4837;50.890;4.724;2023-08-17T09:15:49;11.45;;;7.55;;
9597;SDS011;4837;50.890;4.724;2023-08-17T09:18:16;11.35;;;7.95;;
9597;SDS011;4837;50.890;4.724;2023-08-17T09:20:46;10.18;;;7.68;;
9597;SDS011;4837;50.890;4.724;2023-08-17T09:23:20;11.40;;;8.10;;
9597;SDS011;4837;50.890;4.724;2023-08-17T09:25:47;11.20;;;8.35;;
9597;SDS011;4837;50.890;4.724;2023-08-17T09:28:17;10.48;;;8.52;;
9597;SDS011;4837;50.890;4.724;2023-08-17T09:30:57;10.73;;;8.30;;
9597;SDS011;4837;50.890;4.724;2023-08-17T09:33:28;11.73;;;8.38;;
9597;SDS011;4837;50.890;4.724;2023-08-17T09:35:55;10.30;;;8.68;;
9597;SDS011;4837;50.890;4.724;2023-08-17T09:38:21;12.70;;;8.15;;
9597;SDS011;4837;50.890;4.724;2023-08-17T09:40:48;10.98;;;7.95;;
9597;SDS011;4837;50.890;4.724;2023-08-17T09:43:14;11.68;;;8.18;;
9597;SDS011;4837;50.890;4.724;2023-08-17T09:45:42;9.60;;;8.07;;
9597;SDS011;4837;50.890;4.724;2023-08-17T09:48:10;10.73;;;8.35;;
9597;SDS011;4837;50.890;4.724;2023-08-17T09:50:36;8.88;;;7.97;;
9597;SDS011;4837;50.890;4.724;2023-08-17T09:53:03;12.77;;;8.63;;
9597;SDS011;4837;50.890;4.724;2023-08-17T09:55:32;10.32;;;8.48;;
9597;SDS011;4837;50.890;4.724;2023-08-17T09:57:59;11.32;;;8.75;;
9597;SDS011;4837;50.890;4.724;2023-08-17T10:00:26;9.65;;;8.65;;
9597;SDS011;4837;50.890;4.724;2023-08-17T10:02:53;12.25;;;8.60;;
9597;SDS011;4837;50.890;4.724;2023-08-17T10:05:19;9.65;;;8.18;;
9597;SDS011;4837;50.890;4.724;2023-08-17T10:07:46;10.75;;;8.68;;
9597;SDS011;4837;50.890;4.724;2023-08-17T10:10:14;10.05;;;7.53;;
9597;SDS011;4837;50.890;4.724;2023-08-17T10:12:45;9.10;;;7.57;;
9597;SDS011;4837;50.890;4.724;2023-08-17T10:15:15;8.38;;;7.50;;
9597;SDS011;4837;50.890;4.724;2023-08-17T10:18:02;8.60;;;7.70;;
9597;SDS011;4837;50.890;4.724;2023-08-17T10:20:34;8.15;;;7.35;;
9597;SDS011;4837;50.890;4.724;2023-08-17T10:23:18;7.55;;;6.85;;
9597;SDS011;4837;50.890;4.724;2023-08-17T10:25:45;8.40;;;7.13;;
9597;SDS011;4837;50.890;4.724;2023-08-17T10:28:12;8.35;;;7.18;;
9597;SDS011;4837;50.890;4.724;2023-08-17T10:30:38;10.07;;;7.68;;
9597;SDS011;4837;50.890;4.724;2023-08-17T10:33:05;11.30;;;7.72;;
9597;SDS011;4837;50.890;4.724;2023-08-17T10:35:32;9.25;;;8.07;;
9597;SDS011;4837;50.890;4.724;2023-08-17T10:37:59;10.40;;;8.23;;
9597;SDS011;4837;50.890;4.724;2023-08-17T10:40:26;11.70;;;9.27;;
9597;SDS011;4837;50.890;4.724;2023-08-17T10:42:55;9.68;;;8.73;;
9597;SDS011;4837;50.890;4.724;2023-08-17T10:47:48;11.32;;;9.65;;
9597;SDS011;4837;50.890;4.724;2023-08-17T10:50:24;10.38;;;9.38;;
9597;SDS011;4837;50.890;4.724;2023-08-17T10:52:53;10.30;;;9.15;;
9597;SDS011;4837;50.890;4.724;2023-08-17T10:55:34;10.65;;;9.48;;
9597;SDS011;4837;50.890;4.724;2023-08-17T10:58:00;11.95;;;9.15;;
9597;SDS011;4837;50.890;4.724;2023-08-17T11:00:27;9.93;;;8.93;;
9597;SDS011;4837;50.890;4.724;2023-08-17T11:03:02;10.75;;;8.50;;
9597;SDS011;4837;50.890;4.724;2023-08-17T11:08:06;10.00;;;9.00;;
9597;SDS011;4837;50.890;4.724;2023-08-17T11:10:34;11.32;;;9.23;;
9597;SDS011;4837;50.890;4.724;2023-08-17T11:13:00;9.50;;;8.57;;
9597;SDS011;4837;50.890;4.724;2023-08-17T11:15:37;10.10;;;9.10;;
9597;SDS011;4837;50.890;4.724;2023-08-17T11:18:06;9.68;;;8.68;;
9597;SDS011;4837;50.890;4.724;2023-08-17T11:20:33;12.20;;;9.15;;
9597;SDS011;4837;50.890;4.724;2023-08-17T11:22:59;10.63;;;9.50;;
9597;SDS011;4837;50.890;4.724;2023-08-17T11:25:26;13.18;;;10.55;;
9597;SDS011;4837;50.890;4.724;2023-08-17T11:27:53;10.10;;;8.93;;
9597;SDS011;4837;50.890;4.724;2023-08-17T11:30:22;11.85;;;10.07;;
9597;SDS011;4837;50.890;4.724;2023-08-17T11:32:50;11.68;;;9.88;;
9597;SDS011;4837;50.890;4.724;2023-08-17T11:35:16;12.00;;;10.73;;
9597;SDS011;4837;50.890;4.724;2023-08-17T11:37:42;11.02;;;9.88;;
9597;SDS011;4837;50.890;4.724;2023-08-17T11:40:10;13.80;;;11.75;;
9597;SDS011;4837;50.890;4.724;2023-08-17T11:42:36;13.68;;;11.20;;
9597;SDS011;4837;50.890;4.724;2023-08-17T11:45:03;12.07;;;10.98;;
9597;SDS011;4837;50.890;4.724;2023-08-17T11:47:29;16.73;;;12.57;;
9597;SDS011;4837;50.890;4.724;2023-08-17T11:50:00;14.27;;;11.55;;
9597;SDS011;4837;50.890;4.724;2023-08-17T11:52:27;11.93;;;10.73;;
9597;SDS011;4837;50.890;4.724;2023-08-17T11:54:56;12.93;;;10.98;;
9597;SDS011;4837;50.890;4.724;2023-08-17T11:57:23;14.13;;;12.40;;
9597;SDS011;4837;50.890;4.724;2023-08-17T11:59:52;13.40;;;11.68;;
9597;SDS011;4837;50.890;4.724;2023-08-17T12:02:20;14.30;;;12.35;;
9597;SDS011;4837;50.890;4.724;2023-08-17T12:04:47;13.90;;;12.38;;
9597;SDS011;4837;50.890;4.724;2023-08-17T12:07:13;13.63;;;12.23;;
9597;SDS011;4837;50.890;4.724;2023-08-17T12:09:42;13.70;;;11.80;;
9597;SDS011;4837;50.890;4.724;2023-08-17T12:12:10;13.80;;;12.40;;
9597;SDS011;4837;50.890;4.724;2023-08-17T12:14:36;16.60;;;13.30;;
9597;SDS011;4837;50.890;4.724;2023-08-17T12:17:02;14.82;;;13.25;;
9597;SDS011;4837;50.890;4.724;2023-08-17T12:19:29;16.73;;;13.00;;
9597;SDS011;4837;50.890;4.724;2023-08-17T12:21:55;14.80;;;13.27;;
9597;SDS011;4837;50.890;4.724;2023-08-17T12:24:25;14.88;;;13.25;;
9597;SDS011;4837;50.890;4.724;2023-08-17T12:26:52;17.23;;;13.10;;
9597;SDS011;4837;50.890;4.724;2023-08-17T12:29:18;16.42;;;13.05;;
9597;SDS011;4837;50.890;4.724;2023-08-17T12:31:44;15.30;;;12.43;;
9597;SDS011;4837;50.890;4.724;2023-08-17T12:34:11;14.80;;;13.18;;
9597;SDS011;4837;50.890;4.724;2023-08-17T12:36:37;14.50;;;12.55;;
9597;SDS011;4837;50.890;4.724;2023-08-17T12:39:03;14.43;;;13.05;;
9597;SDS011;4837;50.890;4.724;2023-08-17T12:41:30;16.63;;;13.50;;
9597;SDS011;4837;50.890;4.724;2023-08-17T12:43:57;14.65;;;12.93;;
9597;SDS011;4837;50.890;4.724;2023-08-17T12:46:24;15.95;;;12.63;;
9597;SDS011;4837;50.890;4.724;2023-08-17T12:48:50;15.95;;;13.38;;
9597;SDS011;4837;50.890;4.724;2023-08-17T12:51:17;16.13;;;14.55;;
9597;SDS011;4837;50.890;4.724;2023-08-17T12:53:43;18.38;;;14.32;;
9597;SDS011;4837;50.890;4.724;2023-08-17T12:56:09;14.23;;;12.85;;
9597;SDS011;4837;50.890;4.724;2023-08-17T12:58:35;16.02;;;14.52;;
9597;SDS011;4837;50.890;4.724;2023-08-17T13:01:02;16.73;;;14.10;;
9597;SDS011;4837;50.890;4.724;2023-08-17T13:03:28;16.10;;;13.63;;
9597;SDS011;4837;50.890;4.724;2023-08-17T13:05:54;17.92;;;13.00;;
9597;SDS011;4837;50.890;4.724;2023-08-17T13:08:21;14.38;;;12.93;;
9597;SDS011;4837;50.890;4.724;2023-08-17T13:10:47;17.88;;;12.85;;
9597;SDS011;4837;50.890;4.724;2023-08-17T13:13:13;19.50;;;12.95;;
9597;SDS011;4837;50.890;4.724;2023-08-17T13:15:39;14.93;;;13.43;;
9597;SDS011;4837;50.890;4.724;2023-08-17T13:18:07;16.65;;;13.13;;
9597;SDS011;4837;50.890;4.724;2023-08-17T13:20:34;12.90;;;11.68;;
9597;SDS011;4837;50.890;4.724;2023-08-17T13:23:02;13.98;;;11.70;;
9597;SDS011;4837;50.890;4.724;2023-08-17T13:25:28;13.43;;;11.10;;
9597;SDS011;4837;50.890;4.724;2023-08-17T13:27:54;14.73;;;12.00;;
9597;SDS011;4837;50.890;4.724;2023-08-17T13:30:20;12.88;;;10.95;;
9597;SDS011;4837;50.890;4.724;2023-08-17T13:32:46;15.68;;;11.70;;
9597;SDS011;4837;50.890;4.724;2023-08-17T13:35:13;14.95;;;11.30;;
9597;SDS011;4837;50.890;4.724;2023-08-17T13:37:40;14.00;;;12.23;;
9597;SDS011;4837;50.890;4.724;2023-08-17T13:40:06;12.13;;;10.98;;
9597;SDS011;4837;50.890;4.724;2023-08-17T13:42:33;12.75;;;11.38;;
9597;SDS011;4837;50.890;4.724;2023-08-17T13:44:59;11.43;;;10.15;;
9597;SDS011;4837;50.890;4.724;2023-08-17T13:47:26;12.18;;;9.90;;
9597;SDS011;4837;50.890;4.724;2023-08-17T13:49:52;14.90;;;11.32;;
9597;SDS011;4837;50.890;4.724;2023-08-17T13:52:18;14.45;;;11.95;;
9597;SDS011;4837;50.890;4.724;2023-08-17T13:54:44;15.52;;;12.35;;
9597;SDS011;4837;50.890;4.724;2023-08-17T13:57:10;14.13;;;12.25;;
9597;SDS011;4837;50.890;4.724;2023-08-17T13:59:37;14.48;;;12.82;;
9597;SDS011;4837;50.890;4.724;2023-08-17T14:02:03;15.88;;;13.63;;
9597;SDS011;4837;50.890;4.724;2023-08-17T14:04:29;14.27;;;12.77;;
9597;SDS011;4837;50.890;4.724;2023-08-17T14:06:55;18.10;;;14.27;;
9597;SDS011;4837;50.890;4.724;2023-08-17T14:09:21;15.13;;;13.55;;
9597;SDS011;4837;50.890;4.724;2023-08-17T14:11:47;15.27;;;13.60;;
9597;SDS011;4837;50.890;4.724;2023-08-17T14:14:13;15.75;;;13.02;;
9597;SDS011;4837;50.890;4.724;2023-08-17T14:16:39;16.00;;;13.00;;
9597;SDS011;4837;50.890;4.724;2023-08-17T14:19:06;15.93;;;14.23;;
9597;SDS011;4837;50.890;4.724;2023-08-17T14:21:34;15.43;;;13.32;;
9597;SDS011;4837;50.890;4.724;2023-08-17T14:24:00;17.10;;;14.05;;
9597;SDS011;4837;50.890;4.724;2023-08-17T14:26:26;18.20;;;13.45;;
9597;SDS011;4837;50.890;4.724;2023-08-17T14:28:52;14.18;;;12.70;;
9597;SDS011;4837;50.890;4.724;2023-08-17T14:31:18;14.95;;;13.45;;
9597;SDS011;4837;50.890;4.724;2023-08-17T14:33:45;15.68;;;12.93;;
9597;SDS011;4837;50.890;4.724;2023-08-17T14:36:12;14.70;;;12.98;;
9597;SDS011;4837;50.890;4.724;2023-08-17T14:38:38;16.75;;;12.70;;
9597;SDS011;4837;50.890;4.724;2023-08-17T14:41:05;14.23;;;12.43;;
9597;SDS011;4837;50.890;4.724;2023-08-17T14:43:32;15.50;;;12.77;;
9597;SDS011;4837;50.890;4.724;2023-08-17T14:45:58;16.05;;;12.80;;
9597;SDS011;4837;50.890;4.724;2023-08-17T14:48:24;13.13;;;11.80;;
9597;SDS011;4837;50.890;4.724;2023-08-17T14:50:51;14.52;;;12.95;;
9597;SDS011;4837;50.890;4.724;2023-08-17T14:53:17;14.23;;;12.70;;
9597;SDS011;4837;50.890;4.724;2023-08-17T14:55:43;15.82;;;12.35;;
9597;SDS011;4837;50.890;4.724;2023-08-17T14:58:09;15.27;;;12.10;;
9597;SDS011;4837;50.890;4.724;2023-08-17T15:00:35;14.48;;;13.02;;
9597;SDS011;4837;50.890;4.724;2023-08-17T15:03:01;16.33;;;12.88;;
9597;SDS011;4837;50.890;4.724;2023-08-17T15:05:27;16.65;;;14.82;;
9597;SDS011;4837;50.890;4.724;2023-08-17T15:07:54;17.63;;;14.35;;
9597;SDS011;4837;50.890;4.724;2023-08-17T15:10:20;16.52;;;13.57;;
9597;SDS011;4837;50.890;4.724;2023-08-17T15:12:46;15.30;;;13.70;;